sensor_id;sensor_type;location;lat;lon;timestamp;pressure;altitude;pressure_sealevel;temperature;humidity
30584;BME280;17357;59.404;18.414;2022-11-15T00:00:27;101914.06;;;22.25;100.00
30584;BME280;17357;59.404;18.414;2022-11-15T00:02:53;101912.88;;;22.26;100.00
30584;BME280;17357;59.404;18.414;2022-11-15T00:05:18;101903.50;;;22.22;100.00
30584;BME280;17357;59.404;18.414;2022-11-15T00:07:44;101907.63;;;22.25;100.00
30584;BME280;17357;59.404;18.414;2022-11-15T00:10:09;101903.59;;;22.26;100.00
30584;BME280;17357;59.404;18.414;2022-11-15T00:12:34;101890.28;;;22.26;100.00
30584;BME280;17357;59.404;18.414;2022-11-15T00:15:00;101886.19;;;22.24;100.00
30584;BME280;17357;59.404;18.414;2022-11-15T00:17:25;101891.47;;;22.25;100.00
30584;BME280;17357;59.404;18.414;2022-11-15T00:19:50;101882.19;;;22.25;100.00
30584;BME280;17357;59.404;18.414;2022-11-15T00:22:16;101880.16;;;22.25;100.00
30584;BME280;17357;59.404;18.414;2022-11-15T00:24:41;101876.16;;;22.26;100.00
30584;BME280;17357;59.404;18.414;2022-11-15T00:27:08;101879.34;;;22.25;100.00
30584;BME280;17357;59.404;18.414;2022-11-15T00:29:33;101889.00;;;22.24;100.00
30584;BME280;17357;59.404;18.414;2022-11-15T00:31:58;101887.84;;;22.25;100.00
30584;BME280;17357;59.404;18.414;2022-11-15T00:34:24;101877.72;;;22.24;100.00
30584;BME280;17357;59.404;18.414;2022-11-15T00:36:49;101885.81;;;22.25;100.00
30584;BME280;17357;59.404;18.414;2022-11-15T00:39:14;101880.06;;;22.22;100.00
30584;BME280;17357;59.404;18.414;2022-11-15T00:41:40;101884.63;;;22.26;100.00
30584;BME280;17357;59.404;18.414;2022-11-15T00:44:05;101881.81;;;22.26;100.00
30584;BME280;17357;59.404;18.414;2022-11-15T00:46:30;101880.28;;;22.29;100.00
30584;BME280;17357;59.404;18.414;2022-11-15T00:48:56;101876.06;;;22.23;100.00
30584;BME280;17357;59.404;18.414;2022-11-15T00:51:21;101876.16;;;22.26;100.00
30584;BME280;17357;59.404;18.414;2022-11-15T00:53:46;101883.38;;;22.24;100.00
30584;BME280;17357;59.404;18.414;2022-11-15T00:56:12;101885.00;;;22.25;100.00
30584;BME280;17357;59.404;18.414;2022-11-15T00:58:37;101881.22;;;22.21;100.00
30584;BME280;17357;59.404;18.414;2022-11-15T01:01:08;101886.06;;;22.20;100.00
30584;BME280;17357;59.404;18.414;2022-11-15T01:03:34;101875.59;;;22.21;100.00
30584;BME280;17357;59.404;18.414;2022-11-15T01:06:00;101889.63;;;22.17;100.00
30584;BME280;17357;59.404;18.414;2022-11-15T01:08:25;101886.78;;;22.17;100.00
30584;BME280;17357;59.404;18.414;2022-11-15T01:10:51;101892.78;;;22.16;100.00
30584;BME280;17357;59.404;18.414;2022-11-15T01:13:16;101889.13;;;22.15;100.00
30584;BME280;17357;59.404;18.414;2022-11-15T01:15:42;101880.22;;;22.13;100.00
30584;BME280;17357;59.404;18.414;2022-11-15T01:18:07;101880.44;;;22.08;100.00
30584;BME280;17357;59.404;18.414;2022-11-15T01:20:33;101891.88;;;22.11;100.00
30584;BME280;17357;59.404;18.414;2022-11-15T01:22:58;101881.63;;;22.07;100.00
30584;BME280;17357;59.404;18.414;2022-11-15T01:25:23;101886.91;;;22.08;100.00
30584;BME280;17357;59.404;18.414;2022-11-15T01:27:49;101887.75;;;22.09;100.00
30584;BME280;17357;59.404;18.414;2022-11-15T01:30:14;101884.09;;;22.08;100.00
30584;BME280;17357;59.404;18.414;2022-11-15T01:32:40;101891.38;;;22.09;100.00
30584;BME280;17357;59.404;18.414;2022-11-15T01:35:05;101894.47;;;22.04;100.00
30584;BME280;17357;59.404;18.414;2022-11-15T01:37:31;101892.47;;;22.05;100.00
30584;BME280;17357;59.404;18.414;2022-11-15T01:39:56;101901.28;;;22.03;100.00
30584;BME280;17357;59.404;18.414;2022-11-15T01:42:21;101904.94;;;22.04;100.00
30584;BME280;17357;59.404;18.414;2022-11-15T01:44:48;101904.94;;;22.04;100.00
30584;BME280;17357;59.404;18.414;2022-11-15T01:47:21;101906.00;;;21.99;100.00
30584;BME280;17357;59.404;18.414;2022-11-15T01:50:09;101902.84;;;22.01;100.00
30584;BME280;17357;59.404;18.414;2022-11-15T01:52:37;101883.28;;;21.96;100.00
30584;BME280;17357;59.404;18.414;2022-11-15T01:55:23;101897.75;;;21.94;100.00
30584;BME280;17357;59.404;18.414;2022-11-15T01:57:51;101893.06;;;21.98;100.00
30584;BME280;17357;59.404;18.414;2022-11-15T02:00:18;101893.88;;;21.99;100.00
30584;BME280;17357;59.404;18.414;2022-11-15T02:02:43;101893.97;;;22.02;100.00
30584;BME280;17357;59.404;18.414;2022-11-15T02:05:09;101888.59;;;21.97;100.00
30584;BME280;17357;59.404;18.414;2022-11-15T02:07:35;101891.97;;;22.03;100.00
30584;BME280;17357;59.404;18.414;2022-11-15T02:10:09;101889.88;;;22.00;100.00
30584;BME280;17357;59.404;18.414;2022-11-15T02:12:35;101886.72;;;22.01;100.00
30584;BME280;17357;59.404;18.414;2022-11-15T02:15:01;101890.34;;;22.02;100.00
30584;BME280;17357;59.404;18.414;2022-11-15T02:23:14;101886.09;;;21.96;100.00
30584;BME280;17357;59.404;18.414;2022-11-15T02:28:49;101890.59;;;21.97;100.00
30584;BME280;17357;59.404;18.414;2022-11-15T02:36:29;101896.22;;;21.97;100.00
30584;BME280;17357;59.404;18.414;2022-11-15T02:39:10;101890.13;;;21.95;100.00
30584;BME280;17357;59.404;18.414;2022-11-15T02:41:52;101877.63;;;21.96;100.00
30584;BME280;17357;59.404;18.414;2022-11-15T02:44:41;101875.03;;;21.91;100.00
30584;BME280;17357;59.404;18.414;2022-11-15T02:47:12;101872.00;;;21.96;100.00
30584;BME280;17357;59.404;18.414;2022-11-15T02:49:48;101885.75;;;21.97;100.00
30584;BME280;17357;59.404;18.414;2022-11-15T02:52:24;101883.16;;;22.04;100.00
30584;BME280;17357;59.404;18.414;2022-11-15T02:54:59;101881.75;;;21.98;100.00
30584;BME280;17357;59.404;18.414;2022-11-15T02:57:45;101888.25;;;21.99;100.00
30584;BME280;17357;59.404;18.414;2022-11-15T03:00:18;101887.50;;;22.02;100.00
30584;BME280;17357;59.404;18.414;2022-11-15T03:05:53;101886.72;;;22.01;100.00
30584;BME280;17357;59.404;18.414;2022-11-15T03:08:32;101887.50;;;22.02;100.00
30584;BME280;17357;59.404;18.414;2022-11-15T03:11:11;101885.88;;;22.01;100.00
30584;BME280;17357;59.404;18.414;2022-11-15T03:13:45;101885.88;;;22.01;100.00
30584;BME280;17357;59.404;18.414;2022-11-15T03:16:33;101884.94;;;21.97;100.00
30584;BME280;17357;59.404;18.414;2022-11-15T03:21:35;101897.88;;;21.98;100.00
30584;BME280;17357;59.404;18.414;2022-11-15T03:24:03;101892.97;;;21.95;100.00
30584;BME280;17357;59.404;18.414;2022-11-15T03:26:31;101897.41;;;21.96;100.00
30584;BME280;17357;59.404;18.414;2022-11-15T03:29:01;101897.75;;;21.94;100.00
30584;BME280;17357;59.404;18.414;2022-11-15T03:31:32;101892.44;;;21.93;100.00
30584;BME280;17357;59.404;18.414;2022-11-15T03:36:51;101890.44;;;21.93;100.00
30584;BME280;17357;59.404;18.414;2022-11-15T03:39:17;101899.75;;;21.94;100.00
30584;BME280;17357;59.404;18.414;2022-11-15T03:41:51;101899.28;;;21.92;100.00
30584;BME280;17357;59.404;18.414;2022-11-15T03:47:27;101902.81;;;21.89;100.00
30584;BME280;17357;59.404;18.414;2022-11-15T03:50:04;101900.00;;;21.89;100.00
30584;BME280;17357;59.404;18.414;2022-11-15T03:52:33;101901.28;;;21.91;100.00
30584;BME280;17357;59.404;18.414;2022-11-15T03:55:01;101905.75;;;21.92;100.00
30584;BME280;17357;59.404;18.414;2022-11-15T03:57:27;101908.22;;;21.94;100.00
30584;BME280;17357;59.404;18.414;2022-11-15T03:59:52;101900.81;;;21.89;100.00
30584;BME280;17357;59.404;18.414;2022-11-15T04:02:18;101904.00;;;21.88;100.00
30584;BME280;17357;59.404;18.414;2022-11-15T04:04:43;101906.34;;;21.86;100.00
30584;BME280;17357;59.404;18.414;2022-11-15T04:07:09;101897.03;;;21.85;100.00
30584;BME280;17357;59.404;18.414;2022-11-15T04:09:34;101895.19;;;21.89;100.00
30584;BME280;17357;59.404;18.414;2022-11-15T04:12:19;101900.22;;;21.96;100.00
30584;BME280;17357;59.404;18.414;2022-11-15T04:14:56;101903.53;;;21.98;100.00
30584;BME280;17357;59.404;18.414;2022-11-15T04:20:03;101916.00;;;22.09;100.00
30584;BME280;17357;59.404;18.414;2022-11-15T04:22:48;101905.25;;;22.15;100.00
30584;BME280;17357;59.404;18.414;2022-11-15T04:25:32;101909.84;;;22.19;100.00
30584;BME280;17357;59.404;18.414;2022-11-15T04:27:57;101916.44;;;22.23;100.00
30584;BME280;17357;59.404;18.414;2022-11-15T04:30:23;101900.41;;;22.27;100.00
30584;BME280;17357;59.404;18.414;2022-11-15T04:32:48;101900.88;;;22.29;100.00
30584;BME280;17357;59.404;18.414;2022-11-15T04:35:13;101892.41;;;22.29;100.00
30584;BME280;17357;59.404;18.414;2022-11-15T04:37:39;101891.69;;;22.32;100.00
30584;BME280;17357;59.404;18.414;2022-11-15T04:40:04;101891.06;;;22.39;100.00
30584;BME280;17357;59.404;18.414;2022-11-15T04:42:30;101893.06;;;22.38;100.00
30584;BME280;17357;59.404;18.414;2022-11-15T04:44:55;101892.00;;;22.43;100.00
30584;BME280;17357;59.404;18.414;2022-11-15T04:47:21;101893.28;;;22.45;100.00
30584;BME280;17357;59.404;18.414;2022-11-15T04:49:46;101892.94;;;22.47;100.00
30584;BME280;17357;59.404;18.414;2022-11-15T04:52:12;101892.22;;;22.50;100.00
30584;BME280;17357;59.404;18.414;2022-11-15T04:54:37;101893.03;;;22.50;100.00
30584;BME280;17357;59.404;18.414;2022-11-15T04:57:02;101886.69;;;22.53;100.00
30584;BME280;17357;59.404;18.414;2022-11-15T04:59:28;101893.25;;;22.58;100.00
30584;BME280;17357;59.404;18.414;2022-11-15T05:01:53;101889.59;;;22.57;100.00
30584;BME280;17357;59.404;18.414;2022-11-15T05:04:18;101894.03;;;22.70;100.00
30584;BME280;17357;59.404;18.414;2022-11-15T05:06:45;101901.38;;;22.87;100.00
30584;BME280;17357;59.404;18.414;2022-11-15T05:09:11;101895.75;;;23.03;100.00
30584;BME280;17357;59.404;18.414;2022-11-15T05:11:38;101887.09;;;23.11;100.00
30584;BME280;17357;59.404;18.414;2022-11-15T05:14:03;101887.94;;;23.27;100.00
30584;BME280;17357;59.404;18.414;2022-11-15T05:16:29;101892.13;;;23.33;100.00
30584;BME280;17357;59.404;18.414;2022-11-15T05:18:54;101884.84;;;23.48;100.00
30584;BME280;17357;59.404;18.414;2022-11-15T05:21:20;101887.50;;;23.57;100.00
30584;BME280;17357;59.404;18.414;2022-11-15T05:23:46;101891.78;;;23.66;100.00
30584;BME280;17357;59.404;18.414;2022-11-15T05:26:11;101886.66;;;23.72;100.00
30584;BME280;17357;59.404;18.414;2022-11-15T05:28:37;101886.00;;;23.79;100.00
30584;BME280;17357;59.404;18.414;2022-11-15T05:31:08;101882.06;;;23.83;100.00
30584;BME280;17357;59.404;18.414;2022-11-15T05:33:34;101887.00;;;23.86;100.00
30584;BME280;17357;59.404;18.414;2022-11-15T05:36:31;101887.00;;;23.86;100.00
30584;BME280;17357;59.404;18.414;2022-11-15T05:38:58;101885.53;;;23.92;100.00
30584;BME280;17357;59.404;18.414;2022-11-15T05:41:31;101900.13;;;23.94;100.00
30584;BME280;17357;59.404;18.414;2022-11-15T05:43:59;101901.03;;;23.98;100.00
30584;BME280;17357;59.404;18.414;2022-11-15T05:46:26;101899.09;;;24.02;100.00
30584;BME280;17357;59.404;18.414;2022-11-15T05:48:53;101895.53;;;24.05;100.00
30584;BME280;17357;59.404;18.414;2022-11-15T05:51:22;101898.00;;;24.07;100.00
30584;BME280;17357;59.404;18.414;2022-11-15T05:53:48;101899.31;;;23.94;100.00
30584;BME280;17357;59.404;18.414;2022-11-15T05:56:14;101909.03;;;23.77;100.00
30584;BME280;17357;59.404;18.414;2022-11-15T05:58:39;101907.56;;;23.67;100.00
30584;BME280;17357;59.404;18.414;2022-11-15T06:01:05;101917.19;;;23.63;100.00
30584;BME280;17357;59.404;18.414;2022-11-15T06:03:30;101910.59;;;23.59;100.00
30584;BME280;17357;59.404;18.414;2022-11-15T06:05:56;101917.53;;;23.61;100.00
30584;BME280;17357;59.404;18.414;2022-11-15T06:08:22;101919.09;;;23.59;100.00
30584;BME280;17357;59.404;18.414;2022-11-15T06:10:47;101918.19;;;23.55;100.00
30584;BME280;17357;59.404;18.414;2022-11-15T06:13:13;101920.66;;;23.56;100.00
30584;BME280;17357;59.404;18.414;2022-11-15T06:15:38;101918.94;;;23.52;100.00
30584;BME280;17357;59.404;18.414;2022-11-15T06:18:03;101916.09;;;23.52;100.00
30584;BME280;17357;59.404;18.414;2022-11-15T06:20:29;101922.94;;;23.51;100.00
30584;BME280;17357;59.404;18.414;2022-11-15T06:23:02;101924.03;;;23.46;100.00
30584;BME280;17357;59.404;18.414;2022-11-15T06:25:28;101932.63;;;23.50;100.00
30584;BME280;17357;59.404;18.414;2022-11-15T06:27:55;101935.44;;;23.50;100.00
30584;BME280;17357;59.404;18.414;2022-11-15T06:30:22;101926.13;;;23.49;100.00
30584;BME280;17357;59.404;18.414;2022-11-15T06:32:47;101934.28;;;23.51;100.00
30584;BME280;17357;59.404;18.414;2022-11-15T06:35:13;101940.41;;;23.53;100.00
30584;BME280;17357;59.404;18.414;2022-11-15T06:37:39;101946.06;;;23.53;100.00
30584;BME280;17357;59.404;18.414;2022-11-15T06:40:06;101937.19;;;23.54;100.00
30584;BME280;17357;59.404;18.414;2022-11-15T06:42:31;101942.84;;;23.54;100.00
30584;BME280;17357;59.404;18.414;2022-11-15T06:44:57;101941.66;;;23.55;100.00
30584;BME280;17357;59.404;18.414;2022-11-15T06:47:22;101942.03;;;23.54;100.00
30584;BME280;17357;59.404;18.414;2022-11-15T06:49:48;101944.13;;;23.57;100.00
30584;BME280;17357;59.404;18.414;2022-11-15T06:52:13;101940.47;;;23.56;100.00
30584;BME280;17357;59.404;18.414;2022-11-15T06:54:38;101944.13;;;23.57;100.00
30584;BME280;17357;59.404;18.414;2022-11-15T06:57:04;101947.69;;;23.54;100.00
30584;BME280;17357;59.404;18.414;2022-11-15T06:59:29;101951.88;;;23.60;100.00
30584;BME280;17357;59.404;18.414;2022-11-15T07:01:55;101961.56;;;23.59;100.00
30584;BME280;17357;59.404;18.414;2022-11-15T07:04:20;101955.00;;;23.55;100.00
30584;BME280;17357;59.404;18.414;2022-11-15T07:06:46;101969.69;;;23.60;100.00
30584;BME280;17357;59.404;18.414;2022-11-15T07:09:12;101955.91;;;23.59;100.00
30584;BME280;17357;59.404;18.414;2022-11-15T07:11:38;101966.03;;;23.60;100.00
30584;BME280;17357;59.404;18.414;2022-11-15T07:14:03;101959.13;;;23.57;100.00
30584;BME280;17357;59.404;18.414;2022-11-15T07:16:28;101961.94;;;23.57;100.00
30584;BME280;17357;59.404;18.414;2022-11-15T07:18:54;101968.88;;;23.60;100.00
30584;BME280;17357;59.404;18.414;2022-11-15T07:21:19;101966.31;;;23.55;100.00
30584;BME280;17357;59.404;18.414;2022-11-15T07:23:44;101958.56;;;23.52;100.00
30584;BME280;17357;59.404;18.414;2022-11-15T07:26:10;101965.66;;;23.46;100.00
30584;BME280;17357;59.404;18.414;2022-11-15T07:28:35;101963.78;;;23.50;100.00
30584;BME280;17357;59.404;18.414;2022-11-15T07:31:03;101960.47;;;23.48;100.00
30584;BME280;17357;59.404;18.414;2022-11-15T07:33:29;101956.44;;;23.49;100.00
30584;BME280;17357;59.404;18.414;2022-11-15T07:35:58;101962.59;;;23.51;100.00
30584;BME280;17357;59.404;18.414;2022-11-15T07:38:23;101959.75;;;23.66;100.00
30584;BME280;17357;59.404;18.414;2022-11-15T07:40:56;101964.50;;;23.62;100.00
30584;BME280;17357;59.404;18.414;2022-11-15T07:43:21;101964.16;;;23.64;100.00
30584;BME280;17357;59.404;18.414;2022-11-15T07:45:46;101959.13;;;23.57;100.00
30584;BME280;17357;59.404;18.414;2022-11-15T07:48:12;101969.63;;;23.57;100.00
30584;BME280;17357;59.404;18.414;2022-11-15T07:50:40;101971.56;;;23.53;100.00
30584;BME280;17357;59.404;18.414;2022-11-15T07:53:08;101967.16;;;23.55;100.00
30584;BME280;17357;59.404;18.414;2022-11-15T07:55:34;101956.19;;;23.54;100.00
30584;BME280;17357;59.404;18.414;2022-11-15T07:58:04;101963.41;;;23.51;100.00
30584;BME280;17357;59.404;18.414;2022-11-15T08:00:30;101965.78;;;23.49;100.00
30584;BME280;17357;59.404;18.414;2022-11-15T08:03:06;101988.31;;;23.46;100.00
30584;BME280;17357;59.404;18.414;2022-11-15T08:05:32;101977.84;;;23.46;100.00
30584;BME280;17357;59.404;18.414;2022-11-15T08:07:58;101988.31;;;23.46;100.00
30584;BME280;17357;59.404;18.414;2022-11-15T08:10:25;101993.63;;;23.47;100.00
30584;BME280;17357;59.404;18.414;2022-11-15T08:13:01;101999.16;;;23.44;100.00
30584;BME280;17357;59.404;18.414;2022-11-15T08:15:28;101990.44;;;23.49;100.00
30584;BME280;17357;59.404;18.414;2022-11-15T08:17:56;101992.44;;;23.48;100.00
30584;BME280;17357;59.404;18.414;2022-11-15T08:20:23;101995.75;;;23.50;100.00
30584;BME280;17357;59.404;18.414;2022-11-15T08:22:48;101991.25;;;23.49;100.00
30584;BME280;17357;59.404;18.414;2022-11-15T08:25:13;101991.63;;;23.48;100.00
30584;BME280;17357;59.404;18.414;2022-11-15T08:27:39;102001.75;;;23.49;100.00
30584;BME280;17357;59.404;18.414;2022-11-15T08:30:05;101993.16;;;23.45;100.00
30584;BME280;17357;59.404;18.414;2022-11-15T08:32:31;101998.94;;;23.49;100.00
30584;BME280;17357;59.404;18.414;2022-11-15T08:34:56;101995.16;;;23.45;100.00
30584;BME280;17357;59.404;18.414;2022-11-15T08:37:22;102006.47;;;23.45;100.00
30584;BME280;17357;59.404;18.414;2022-11-15T08:39:47;101997.66;;;23.46;100.00
30584;BME280;17357;59.404;18.414;2022-11-15T08:42:12;102009.44;;;23.48;100.00
30584;BME280;17357;59.404;18.414;2022-11-15T08:44:39;102012.25;;;23.48;100.00
30584;BME280;17357;59.404;18.414;2022-11-15T08:47:05;102004.16;;;23.47;100.00
30584;BME280;17357;59.404;18.414;2022-11-15T08:49:30;102002.13;;;23.47;100.00
30584;BME280;17357;59.404;18.414;2022-11-15T08:51:56;102011.81;;;23.46;100.00
30584;BME280;17357;59.404;18.414;2022-11-15T08:54:21;101995.66;;;23.47;100.00
30584;BME280;17357;59.404;18.414;2022-11-15T08:56:46;102007.66;;;23.44;100.00
30584;BME280;17357;59.404;18.414;2022-11-15T08:59:12;102017.09;;;23.48;100.00
30584;BME280;17357;59.404;18.414;2022-11-15T09:01:37;102018.75;;;23.49;100.00
30584;BME280;17357;59.404;18.414;2022-11-15T09:04:03;102014.97;;;23.45;100.00
30584;BME280;17357;59.404;18.414;2022-11-15T09:06:29;102025.84;;;23.43;100.00
30584;BME280;17357;59.404;18.414;2022-11-15T09:08:54;102025.13;;;23.46;100.00
30584;BME280;17357;59.404;18.414;2022-11-15T09:11:20;102034.09;;;23.48;100.00
30584;BME280;17357;59.404;18.414;2022-11-15T09:13:47;102032.47;;;23.47;100.00
30584;BME280;17357;59.404;18.414;2022-11-15T09:16:12;102029.13;;;23.45;100.00
30584;BME280;17357;59.404;18.414;2022-11-15T09:18:38;102034.78;;;23.45;100.00
30584;BME280;17357;59.404;18.414;2022-11-15T09:21:03;102023.38;;;23.41;100.00
30584;BME280;17357;59.404;18.414;2022-11-15T09:23:29;102032.47;;;23.47;100.00
30584;BME280;17357;59.404;18.414;2022-11-15T09:25:59;102041.63;;;23.44;100.00
30584;BME280;17357;59.404;18.414;2022-11-15T09:28:25;102033.97;;;23.44;100.00
30584;BME280;17357;59.404;18.414;2022-11-15T09:30:51;102037.63;;;23.45;100.00
30584;BME280;17357;59.404;18.414;2022-11-15T09:33:17;102031.06;;;23.41;100.00
30584;BME280;17357;59.404;18.414;2022-11-15T09:35:42;102046.25;;;23.48;100.00
30584;BME280;17357;59.404;18.414;2022-11-15T09:38:07;102037.38;;;23.50;100.00
30584;BME280;17357;59.404;18.414;2022-11-15T09:40:36;102045.28;;;23.44;100.00
30584;BME280;17357;59.404;18.414;2022-11-15T09:43:22;102045.81;;;23.46;100.00
30584;BME280;17357;59.404;18.414;2022-11-15T09:48:48;102044.94;;;23.46;100.00
30584;BME280;17357;59.404;18.414;2022-11-15T09:51:28;102063.94;;;23.45;100.00
30584;BME280;17357;59.404;18.414;2022-11-15T09:56:35;102058.13;;;23.54;100.00
30584;BME280;17357;59.404;18.414;2022-11-15T09:59:17;102052.84;;;23.52;100.00
30584;BME280;17357;59.404;18.414;2022-11-15T10:04:38;102055.03;;;23.59;100.00
30584;BME280;17357;59.404;18.414;2022-11-15T10:07:34;102049.63;;;23.54;100.00
30584;BME280;17357;59.404;18.414;2022-11-15T10:10:20;102065.91;;;23.57;100.00
30584;BME280;17357;59.404;18.414;2022-11-15T10:12:50;102051.47;;;23.62;100.00
30584;BME280;17357;59.404;18.414;2022-11-15T10:15:17;102031.75;;;23.65;100.00
30584;BME280;17357;59.404;18.414;2022-11-15T10:20:30;102056.88;;;23.67;100.00
30584;BME280;17357;59.404;18.414;2022-11-15T10:23:05;102052.88;;;23.68;100.00
30584;BME280;17357;59.404;18.414;2022-11-15T10:25:33;102050.94;;;23.72;100.00
30584;BME280;17357;59.404;18.414;2022-11-15T10:28:06;102052.94;;;23.71;100.00
30584;BME280;17357;59.404;18.414;2022-11-15T10:30:37;102050.94;;;23.72;100.00
30584;BME280;17357;59.404;18.414;2022-11-15T10:33:32;102054.88;;;23.67;100.00
30584;BME280;17357;59.404;18.414;2022-11-15T10:41:16;102057.06;;;23.74;100.00
30584;BME280;17357;59.404;18.414;2022-11-15T10:43:42;102054.25;;;23.74;100.00
30584;BME280;17357;59.404;18.414;2022-11-15T10:48:44;102053.97;;;23.79;100.00
30584;BME280;17357;59.404;18.414;2022-11-15T10:51:20;102055.16;;;23.78;100.00
30584;BME280;17357;59.404;18.414;2022-11-15T10:53:48;102056.06;;;23.82;100.00
30584;BME280;17357;59.404;18.414;2022-11-15T10:56:14;102041.88;;;23.82;100.00
30584;BME280;17357;59.404;18.414;2022-11-15T10:58:49;102045.09;;;23.81;100.00
30584;BME280;17357;59.404;18.414;2022-11-15T11:01:22;102043.94;;;23.82;100.00
30584;BME280;17357;59.404;18.414;2022-11-15T11:04:05;102036.63;;;23.81;100.00
30584;BME280;17357;59.404;18.414;2022-11-15T11:06:46;102035.44;;;23.82;100.00
30584;BME280;17357;59.404;18.414;2022-11-15T11:09:31;102036.69;;;23.84;100.00
30584;BME280;17357;59.404;18.414;2022-11-15T11:11:58;102029.50;;;23.87;100.00
30584;BME280;17357;59.404;18.414;2022-11-15T11:14:24;102032.75;;;23.89;100.00
30584;BME280;17357;59.404;18.414;2022-11-15T11:22:25;102050.03;;;23.84;100.00
30584;BME280;17357;59.404;18.414;2022-11-15T11:25:11;102053.13;;;23.79;100.00
30584;BME280;17357;59.404;18.414;2022-11-15T11:35:57;102049.41;;;23.90;100.00
30584;BME280;17357;59.404;18.414;2022-11-15T11:38:49;102051.22;;;23.83;100.00
30584;BME280;17357;59.404;18.414;2022-11-15T11:47:10;102038.81;;;23.87;100.00
30584;BME280;17357;59.404;18.414;2022-11-15T11:49:52;102043.25;;;23.88;100.00
30584;BME280;17357;59.404;18.414;2022-11-15T11:55:18;102040.91;;;23.90;100.00
30584;BME280;17357;59.404;18.414;2022-11-15T11:58:13;102039.25;;;23.89;100.00
30584;BME280;17357;59.404;18.414;2022-11-15T12:00:59;102051.31;;;23.86;100.00
30584;BME280;17357;59.404;18.414;2022-11-15T12:06:09;102057.91;;;23.90;100.00
30584;BME280;17357;59.404;18.414;2022-11-15T12:17:10;102057.53;;;23.92;100.00
30584;BME280;17357;59.404;18.414;2022-11-15T12:19:37;102057.06;;;23.90;100.00
30584;BME280;17357;59.404;18.414;2022-11-15T12:22:13;102059.91;;;23.90;100.00
30584;BME280;17357;59.404;18.414;2022-11-15T12:24:52;102052.69;;;23.92;100.00
30584;BME280;17357;59.404;18.414;2022-11-15T12:29:51;102054.78;;;23.95;100.00
30584;BME280;17357;59.404;18.414;2022-11-15T12:32:31;102045.38;;;23.91;100.00
30584;BME280;17357;59.404;18.414;2022-11-15T12:34:59;102048.41;;;23.98;100.00
30584;BME280;17357;59.404;18.414;2022-11-15T12:42:40;102054.78;;;23.95;100.00
30584;BME280;17357;59.404;18.414;2022-11-15T13:06:57;102052.44;;;23.97;100.00
30584;BME280;17357;59.404;18.414;2022-11-15T13:11:56;102039.63;;;24.03;100.00
30584;BME280;17357;59.404;18.414;2022-11-15T13:14:46;102043.47;;;23.95;100.00
30584;BME280;17357;59.404;18.414;2022-11-15T13:17:34;102039.44;;;23.96;100.00
30584;BME280;17357;59.404;18.414;2022-11-15T13:22:41;102033.84;;;24.00;100.00
30584;BME280;17357;59.404;18.414;2022-11-15T13:27:51;102035.59;;;24.04;100.00
30584;BME280;17357;59.404;18.414;2022-11-15T13:30:23;102038.88;;;24.06;100.00
30584;BME280;17357;59.404;18.414;2022-11-15T13:32:50;102038.88;;;24.06;100.00
30584;BME280;17357;59.404;18.414;2022-11-15T13:35:25;102052.69;;;24.08;100.00
30584;BME280;17357;59.404;18.414;2022-11-15T13:37:52;102048.66;;;24.09;100.00
30584;BME280;17357;59.404;18.414;2022-11-15T13:40:20;102047.84;;;24.08;100.00
30584;BME280;17357;59.404;18.414;2022-11-15T13:42:46;102041.34;;;24.08;100.00
30584;BME280;17357;59.404;18.414;2022-11-15T13:45:17;102048.22;;;24.07;100.00
30584;BME280;17357;59.404;18.414;2022-11-15T13:47:42;102048.66;;;24.09;100.00
30584;BME280;17357;59.404;18.414;2022-11-15T13:50:12;102057.53;;;24.07;100.00
30584;BME280;17357;59.404;18.414;2022-11-15T13:52:39;102065.75;;;24.12;100.00
30584;BME280;17357;59.404;18.414;2022-11-15T13:55:20;102058.44;;;24.11;100.00
30584;BME280;17357;59.404;18.414;2022-11-15T13:57:58;102060.09;;;24.12;100.00
30584;BME280;17357;59.404;18.414;2022-11-15T14:00:25;102060.19;;;24.16;100.00
30584;BME280;17357;59.404;18.414;2022-11-15T14:02:51;102061.03;;;24.17;100.00
30584;BME280;17357;59.404;18.414;2022-11-15T14:05:19;102057.72;;;24.14;100.00
30584;BME280;17357;59.404;18.414;2022-11-15T14:08:03;102070.59;;;24.12;100.00
30584;BME280;17357;59.404;18.414;2022-11-15T14:10:36;102075.44;;;24.11;100.00
30584;BME280;17357;59.404;18.414;2022-11-15T14:13:04;102072.25;;;24.13;100.00
30584;BME280;17357;59.404;18.414;2022-11-15T14:17:56;102075.28;;;24.04;100.00
30584;BME280;17357;59.404;18.414;2022-11-15T14:22:55;102078.13;;;24.04;100.00
30584;BME280;17357;59.404;18.414;2022-11-15T14:25:21;102082.56;;;23.90;100.00
30584;BME280;17357;59.404;18.414;2022-11-15T14:30:47;102081.31;;;24.03;100.00
30584;BME280;17357;59.404;18.414;2022-11-15T14:33:33;102084.06;;;23.99;100.00
30584;BME280;17357;59.404;18.414;2022-11-15T14:36:13;102078.41;;;23.99;100.00
30584;BME280;17357;59.404;18.414;2022-11-15T14:38:40;102072.63;;;23.96;100.00
30584;BME280;17357;59.404;18.414;2022-11-15T14:41:05;102077.94;;;23.97;100.00
30584;BME280;17357;59.404;18.414;2022-11-15T14:43:31;102080.75;;;23.97;98.02
30584;BME280;17357;59.404;18.414;2022-11-15T14:45:56;102078.47;;;24.03;100.00